sensor_id;sensor_type;location;lat;lon;timestamp;temperature;humidity
15997;DHT22;8103;51.340;12.326;2023-07-22T00:00:04;15.50;99.90
15997;DHT22;8103;51.340;12.326;2023-07-22T00:02:32;15.40;99.90
15997;DHT22;8103;51.340;12.326;2023-07-22T00:04:59;15.40;99.90
15997;DHT22;8103;51.340;12.326;2023-07-22T00:07:26;15.30;99.90
15997;DHT22;8103;51.340;12.326;2023-07-22T00:09:53;15.30;99.90
15997;DHT22;8103;51.340;12.326;2023-07-22T00:12:20;15.30;99.90
15997;DHT22;8103;51.340;12.326;2023-07-22T00:14:46;15.20;99.90
15997;DHT22;8103;51.340;12.326;2023-07-22T00:17:13;15.20;99.90
15997;DHT22;8103;51.340;12.326;2023-07-22T00:19:40;15.20;99.90
15997;DHT22;8103;51.340;12.326;2023-07-22T00:22:07;15.10;99.90
15997;DHT22;8103;51.340;12.326;2023-07-22T00:24:34;15.00;99.90
15997;DHT22;8103;51.340;12.326;2023-07-22T00:27:01;15.00;99.90
15997;DHT22;8103;51.340;12.326;2023-07-22T00:29:28;15.00;99.90
15997;DHT22;8103;51.340;12.326;2023-07-22T00:31:55;14.90;99.90
15997;DHT22;8103;51.340;12.326;2023-07-22T00:36:50;14.90;99.90
15997;DHT22;8103;51.340;12.326;2023-07-22T00:39:17;14.90;99.90
15997;DHT22;8103;51.340;12.326;2023-07-22T00:41:44;14.90;99.90
15997;DHT22;8103;51.340;12.326;2023-07-22T00:44:11;14.90;99.90
15997;DHT22;8103;51.340;12.326;2023-07-22T00:46:39;14.90;99.90
15997;DHT22;8103;51.340;12.326;2023-07-22T00:49:07;14.90;99.90
15997;DHT22;8103;51.340;12.326;2023-07-22T00:51:34;14.90;99.90
15997;DHT22;8103;51.340;12.326;2023-07-22T00:54:03;14.90;99.90
15997;DHT22;8103;51.340;12.326;2023-07-22T00:56:35;14.90;99.90
15997;DHT22;8103;51.340;12.326;2023-07-22T00:59:02;14.80;99.90
15997;DHT22;8103;51.340;12.326;2023-07-22T01:01:29;14.80;99.90
15997;DHT22;8103;51.340;12.326;2023-07-22T01:03:56;14.80;99.90
15997;DHT22;8103;51.340;12.326;2023-07-22T01:10:13;14.70;99.90
15997;DHT22;8103;51.340;12.326;2023-07-22T01:12:41;14.70;99.90
15997;DHT22;8103;51.340;12.326;2023-07-22T01:15:09;14.70;99.90
15997;DHT22;8103;51.340;12.326;2023-07-22T01:17:38;14.70;99.90
15997;DHT22;8103;51.340;12.326;2023-07-22T01:20:06;14.60;99.90
15997;DHT22;8103;51.340;12.326;2023-07-22T01:22:34;14.50;99.90
15997;DHT22;8103;51.340;12.326;2023-07-22T01:25:02;14.50;99.90
15997;DHT22;8103;51.340;12.326;2023-07-22T01:27:29;14.50;99.90
15997;DHT22;8103;51.340;12.326;2023-07-22T01:29:56;14.50;99.90
15997;DHT22;8103;51.340;12.326;2023-07-22T01:32:23;14.50;99.90
15997;DHT22;8103;51.340;12.326;2023-07-22T01:34:49;14.50;99.90
15997;DHT22;8103;51.340;12.326;2023-07-22T01:37:17;14.50;99.90
15997;DHT22;8103;51.340;12.326;2023-07-22T01:39:43;14.50;99.90
15997;DHT22;8103;51.340;12.326;2023-07-22T01:42:10;14.50;99.90
15997;DHT22;8103;51.340;12.326;2023-07-22T01:44:39;14.50;99.90
15997;DHT22;8103;51.340;12.326;2023-07-22T01:47:06;14.50;99.90
15997;DHT22;8103;51.340;12.326;2023-07-22T01:49:33;14.50;99.90
15997;DHT22;8103;51.340;12.326;2023-07-22T01:52:00;14.50;99.90
15997;DHT22;8103;51.340;12.326;2023-07-22T01:54:27;14.60;99.90
15997;DHT22;8103;51.340;12.326;2023-07-22T01:56:54;14.60;99.90
15997;DHT22;8103;51.340;12.326;2023-07-22T01:59:22;14.60;99.90
15997;DHT22;8103;51.340;12.326;2023-07-22T02:01:48;14.60;99.90
15997;DHT22;8103;51.340;12.326;2023-07-22T02:04:15;14.60;99.90
15997;DHT22;8103;51.340;12.326;2023-07-22T02:06:42;14.50;99.90
15997;DHT22;8103;51.340;12.326;2023-07-22T02:09:09;14.60;99.90
15997;DHT22;8103;51.340;12.326;2023-07-22T02:11:39;14.60;99.90
15997;DHT22;8103;51.340;12.326;2023-07-22T02:14:06;14.50;99.90
15997;DHT22;8103;51.340;12.326;2023-07-22T02:16:37;14.50;99.90
15997;DHT22;8103;51.340;12.326;2023-07-22T02:19:04;14.50;99.90
15997;DHT22;8103;51.340;12.326;2023-07-22T02:21:30;14.50;99.90
15997;DHT22;8103;51.340;12.326;2023-07-22T02:23:57;14.50;99.90
15997;DHT22;8103;51.340;12.326;2023-07-22T02:26:24;14.60;99.90
15997;DHT22;8103;51.340;12.326;2023-07-22T02:28:51;14.60;99.90
15997;DHT22;8103;51.340;12.326;2023-07-22T02:31:18;14.60;99.90
15997;DHT22;8103;51.340;12.326;2023-07-22T02:33:45;14.60;99.90
15997;DHT22;8103;51.340;12.326;2023-07-22T02:36:13;14.60;99.90
15997;DHT22;8103;51.340;12.326;2023-07-22T02:38:40;14.50;99.90
15997;DHT22;8103;51.340;12.326;2023-07-22T02:41:07;14.60;99.90
15997;DHT22;8103;51.340;12.326;2023-07-22T02:43:34;14.60;99.90
15997;DHT22;8103;51.340;12.326;2023-07-22T02:46:02;14.60;99.90
15997;DHT22;8103;51.340;12.326;2023-07-22T02:48:30;14.60;99.90
15997;DHT22;8103;51.340;12.326;2023-07-22T02:51:04;14.60;99.90
15997;DHT22;8103;51.340;12.326;2023-07-22T02:53:32;14.60;99.90
15997;DHT22;8103;51.340;12.326;2023-07-22T02:56:00;14.60;99.90
15997;DHT22;8103;51.340;12.326;2023-07-22T02:58:27;14.50;99.90
15997;DHT22;8103;51.340;12.326;2023-07-22T03:00:54;14.50;99.90
15997;DHT22;8103;51.340;12.326;2023-07-22T03:03:21;14.50;99.90
15997;DHT22;8103;51.340;12.326;2023-07-22T03:05:48;14.50;99.90
15997;DHT22;8103;51.340;12.326;2023-07-22T03:08:15;14.50;99.90
15997;DHT22;8103;51.340;12.326;2023-07-22T03:10:43;14.60;99.90
15997;DHT22;8103;51.340;12.326;2023-07-22T03:13:17;14.60;99.90
15997;DHT22;8103;51.340;12.326;2023-07-22T03:15:44;14.60;99.90
15997;DHT22;8103;51.340;12.326;2023-07-22T03:18:11;14.60;99.90
15997;DHT22;8103;51.340;12.326;2023-07-22T03:20:39;14.60;99.90
15997;DHT22;8103;51.340;12.326;2023-07-22T03:23:06;14.60;99.90
15997;DHT22;8103;51.340;12.326;2023-07-22T03:25:34;14.50;99.90
15997;DHT22;8103;51.340;12.326;2023-07-22T03:28:04;14.50;99.90
15997;DHT22;8103;51.340;12.326;2023-07-22T03:30:31;14.50;99.90
15997;DHT22;8103;51.340;12.326;2023-07-22T03:33:00;14.50;99.90
15997;DHT22;8103;51.340;12.326;2023-07-22T03:35:27;14.50;99.90
15997;DHT22;8103;51.340;12.326;2023-07-22T03:41:41;14.60;99.90
15997;DHT22;8103;51.340;12.326;2023-07-22T03:44:08;14.60;99.90
15997;DHT22;8103;51.340;12.326;2023-07-22T03:46:35;14.60;99.90
15997;DHT22;8103;51.340;12.326;2023-07-22T03:49:02;14.50;99.90
15997;DHT22;8103;51.340;12.326;2023-07-22T03:51:29;14.50;99.90
15997;DHT22;8103;51.340;12.326;2023-07-22T03:53:56;14.50;99.90
15997;DHT22;8103;51.340;12.326;2023-07-22T03:56:22;14.40;99.90
15997;DHT22;8103;51.340;12.326;2023-07-22T03:58:51;14.40;99.90
15997;DHT22;8103;51.340;12.326;2023-07-22T04:01:19;14.40;99.90
15997;DHT22;8103;51.340;12.326;2023-07-22T04:03:46;14.40;99.90
15997;DHT22;8103;51.340;12.326;2023-07-22T04:06:12;14.30;99.90
15997;DHT22;8103;51.340;12.326;2023-07-22T04:08:39;14.30;99.90
15997;DHT22;8103;51.340;12.326;2023-07-22T04:11:06;14.30;99.90
15997;DHT22;8103;51.340;12.326;2023-07-22T04:13:33;14.20;99.90
15997;DHT22;8103;51.340;12.326;2023-07-22T04:16:00;14.20;99.90
15997;DHT22;8103;51.340;12.326;2023-07-22T04:18:26;14.20;99.90
15997;DHT22;8103;51.340;12.326;2023-07-22T04:21:00;14.30;99.90
15997;DHT22;8103;51.340;12.326;2023-07-22T04:23:27;14.20;99.90
15997;DHT22;8103;51.340;12.326;2023-07-22T04:25:54;14.30;99.90
15997;DHT22;8103;51.340;12.326;2023-07-22T04:28:20;14.30;99.90
15997;DHT22;8103;51.340;12.326;2023-07-22T04:30:55;14.30;99.90
15997;DHT22;8103;51.340;12.326;2023-07-22T04:33:22;14.30;99.90
15997;DHT22;8103;51.340;12.326;2023-07-22T04:35:49;14.40;99.90
15997;DHT22;8103;51.340;12.326;2023-07-22T04:38:16;14.50;99.90
15997;DHT22;8103;51.340;12.326;2023-07-22T04:40:43;14.50;99.90
15997;DHT22;8103;51.340;12.326;2023-07-22T04:43:10;14.60;99.90
15997;DHT22;8103;51.340;12.326;2023-07-22T04:45:37;14.60;99.90
15997;DHT22;8103;51.340;12.326;2023-07-22T04:48:07;14.60;99.90
15997;DHT22;8103;51.340;12.326;2023-07-22T04:50:33;14.70;99.90
15997;DHT22;8103;51.340;12.326;2023-07-22T04:53:00;14.80;99.90
15997;DHT22;8103;51.340;12.326;2023-07-22T04:55:27;14.80;99.90
15997;DHT22;8103;51.340;12.326;2023-07-22T04:57:56;14.80;99.90
15997;DHT22;8103;51.340;12.326;2023-07-22T05:00:23;14.90;99.90
15997;DHT22;8103;51.340;12.326;2023-07-22T05:02:49;14.90;99.90
15997;DHT22;8103;51.340;12.326;2023-07-22T05:05:19;15.00;99.90
15997;DHT22;8103;51.340;12.326;2023-07-22T05:07:46;15.00;99.90
15997;DHT22;8103;51.340;12.326;2023-07-22T05:10:15;15.10;99.90
15997;DHT22;8103;51.340;12.326;2023-07-22T05:12:42;15.20;99.90
15997;DHT22;8103;51.340;12.326;2023-07-22T05:15:13;15.30;99.90
15997;DHT22;8103;51.340;12.326;2023-07-22T05:17:40;15.30;99.90
15997;DHT22;8103;51.340;12.326;2023-07-22T05:20:07;15.40;99.90
15997;DHT22;8103;51.340;12.326;2023-07-22T05:22:37;15.50;99.90
15997;DHT22;8103;51.340;12.326;2023-07-22T05:25:05;15.50;99.90
15997;DHT22;8103;51.340;12.326;2023-07-22T05:27:32;15.60;99.90
15997;DHT22;8103;51.340;12.326;2023-07-22T05:29:59;15.70;99.90
15997;DHT22;8103;51.340;12.326;2023-07-22T05:36:20;15.80;99.90
15997;DHT22;8103;51.340;12.326;2023-07-22T05:38:47;15.90;99.90
15997;DHT22;8103;51.340;12.326;2023-07-22T05:41:14;15.90;99.90
15997;DHT22;8103;51.340;12.326;2023-07-22T05:43:40;16.00;99.90
15997;DHT22;8103;51.340;12.326;2023-07-22T05:46:07;16.10;99.90
15997;DHT22;8103;51.340;12.326;2023-07-22T05:48:34;16.10;99.90
15997;DHT22;8103;51.340;12.326;2023-07-22T05:51:00;16.20;99.90
15997;DHT22;8103;51.340;12.326;2023-07-22T05:53:27;16.20;99.90
15997;DHT22;8103;51.340;12.326;2023-07-22T05:55:54;16.30;99.90
15997;DHT22;8103;51.340;12.326;2023-07-22T05:58:21;16.40;99.90
15997;DHT22;8103;51.340;12.326;2023-07-22T06:00:47;16.50;99.90
15997;DHT22;8103;51.340;12.326;2023-07-22T06:03:14;16.50;99.90
15997;DHT22;8103;51.340;12.326;2023-07-22T06:05:41;16.60;99.90
15997;DHT22;8103;51.340;12.326;2023-07-22T06:08:08;16.60;99.90
15997;DHT22;8103;51.340;12.326;2023-07-22T06:10:35;16.70;99.90
15997;DHT22;8103;51.340;12.326;2023-07-22T06:13:04;16.80;99.90
15997;DHT22;8103;51.340;12.326;2023-07-22T06:15:31;16.90;99.90
15997;DHT22;8103;51.340;12.326;2023-07-22T06:17:59;16.90;99.90
15997;DHT22;8103;51.340;12.326;2023-07-22T06:20:27;17.00;99.90
15997;DHT22;8103;51.340;12.326;2023-07-22T06:22:53;17.00;99.90
15997;DHT22;8103;51.340;12.326;2023-07-22T06:25:21;17.10;99.90
15997;DHT22;8103;51.340;12.326;2023-07-22T06:27:48;17.10;99.90
15997;DHT22;8103;51.340;12.326;2023-07-22T06:30:15;17.20;99.90
15997;DHT22;8103;51.340;12.326;2023-07-22T06:32:41;17.30;99.90
15997;DHT22;8103;51.340;12.326;2023-07-22T06:35:08;17.40;99.90
15997;DHT22;8103;51.340;12.326;2023-07-22T06:37:35;17.50;99.90
15997;DHT22;8103;51.340;12.326;2023-07-22T06:40:02;17.60;99.90
15997;DHT22;8103;51.340;12.326;2023-07-22T06:42:30;17.70;99.90
15997;DHT22;8103;51.340;12.326;2023-07-22T06:44:57;17.70;98.90
15997;DHT22;8103;51.340;12.326;2023-07-22T06:47:24;17.60;98.20
15997;DHT22;8103;51.340;12.326;2023-07-22T06:49:51;17.70;98.10
15997;DHT22;8103;51.340;12.326;2023-07-22T06:52:18;17.80;97.80
15997;DHT22;8103;51.340;12.326;2023-07-22T06:54:45;17.90;97.20
15997;DHT22;8103;51.340;12.326;2023-07-22T06:57:12;18.00;96.10
15997;DHT22;8103;51.340;12.326;2023-07-22T06:59:39;18.10;95.20
15997;DHT22;8103;51.340;12.326;2023-07-22T07:02:05;18.10;94.90
15997;DHT22;8103;51.340;12.326;2023-07-22T07:04:32;18.20;94.40
15997;DHT22;8103;51.340;12.326;2023-07-22T07:06:59;18.40;94.40
15997;DHT22;8103;51.340;12.326;2023-07-22T07:09:26;18.50;94.20
15997;DHT22;8103;51.340;12.326;2023-07-22T07:11:53;18.60;93.90
15997;DHT22;8103;51.340;12.326;2023-07-22T07:14:23;18.80;93.10
15997;DHT22;8103;51.340;12.326;2023-07-22T07:16:51;18.90;91.40
15997;DHT22;8103;51.340;12.326;2023-07-22T07:19:17;19.00;90.90
15997;DHT22;8103;51.340;12.326;2023-07-22T07:21:44;19.20;90.40
15997;DHT22;8103;51.340;12.326;2023-07-22T07:24:11;19.40;89.10
15997;DHT22;8103;51.340;12.326;2023-07-22T07:26:37;19.50;87.40
15997;DHT22;8103;51.340;12.326;2023-07-22T07:29:04;19.60;85.80
15997;DHT22;8103;51.340;12.326;2023-07-22T07:31:31;19.60;85.60
15997;DHT22;8103;51.340;12.326;2023-07-22T07:33:59;19.60;84.80
15997;DHT22;8103;51.340;12.326;2023-07-22T07:36:25;19.80;84.70
15997;DHT22;8103;51.340;12.326;2023-07-22T07:38:53;20.00;84.10
15997;DHT22;8103;51.340;12.326;2023-07-22T07:41:20;20.10;82.90
15997;DHT22;8103;51.340;12.326;2023-07-22T07:43:47;20.10;81.60
15997;DHT22;8103;51.340;12.326;2023-07-22T07:46:18;20.00;81.80
15997;DHT22;8103;51.340;12.326;2023-07-22T07:48:49;20.00;80.70
15997;DHT22;8103;51.340;12.326;2023-07-22T07:51:17;20.00;78.40
15997;DHT22;8103;51.340;12.326;2023-07-22T07:53:45;20.10;77.60
15997;DHT22;8103;51.340;12.326;2023-07-22T07:56:14;20.10;77.00
15997;DHT22;8103;51.340;12.326;2023-07-22T07:58:42;20.20;76.50
15997;DHT22;8103;51.340;12.326;2023-07-22T08:01:09;20.30;75.50
15997;DHT22;8103;51.340;12.326;2023-07-22T08:03:37;20.30;75.20
15997;DHT22;8103;51.340;12.326;2023-07-22T08:06:04;20.50;74.80
15997;DHT22;8103;51.340;12.326;2023-07-22T08:08:33;20.70;73.50
15997;DHT22;8103;51.340;12.326;2023-07-22T08:11:06;20.90;73.10
15997;DHT22;8103;51.340;12.326;2023-07-22T08:13:37;21.10;70.40
15997;DHT22;8103;51.340;12.326;2023-07-22T08:16:06;21.10;70.20
15997;DHT22;8103;51.340;12.326;2023-07-22T08:18:33;21.10;70.20
15997;DHT22;8103;51.340;12.326;2023-07-22T08:21:02;21.20;69.20
15997;DHT22;8103;51.340;12.326;2023-07-22T08:23:34;21.30;68.60
15997;DHT22;8103;51.340;12.326;2023-07-22T08:26:01;21.50;68.70
15997;DHT22;8103;51.340;12.326;2023-07-22T08:28:27;21.80;68.50
15997;DHT22;8103;51.340;12.326;2023-07-22T08:30:55;22.00;68.10
15997;DHT22;8103;51.340;12.326;2023-07-22T08:33:23;22.20;68.10
15997;DHT22;8103;51.340;12.326;2023-07-22T08:36:04;22.30;67.00
15997;DHT22;8103;51.340;12.326;2023-07-22T08:38:32;22.10;67.50
15997;DHT22;8103;51.340;12.326;2023-07-22T08:40:58;22.20;66.90
15997;DHT22;8103;51.340;12.326;2023-07-22T08:43:27;22.20;66.40
15997;DHT22;8103;51.340;12.326;2023-07-22T08:45:55;22.30;66.20
15997;DHT22;8103;51.340;12.326;2023-07-22T08:48:30;22.50;64.90
15997;DHT22;8103;51.340;12.326;2023-07-22T08:51:06;22.60;63.80
15997;DHT22;8103;51.340;12.326;2023-07-22T08:53:35;22.70;62.90
15997;DHT22;8103;51.340;12.326;2023-07-22T08:56:01;22.70;63.50
15997;DHT22;8103;51.340;12.326;2023-07-22T08:58:29;22.70;64.70
15997;DHT22;8103;51.340;12.326;2023-07-22T09:00:56;22.90;61.40
15997;DHT22;8103;51.340;12.326;2023-07-22T09:03:24;23.20;59.20
15997;DHT22;8103;51.340;12.326;2023-07-22T09:05:52;23.40;59.00
15997;DHT22;8103;51.340;12.326;2023-07-22T09:08:20;23.50;59.60
15997;DHT22;8103;51.340;12.326;2023-07-22T09:10:48;23.90;58.70
15997;DHT22;8103;51.340;12.326;2023-07-22T09:13:15;24.30;57.90
15997;DHT22;8103;51.340;12.326;2023-07-22T09:15:42;24.40;57.10
15997;DHT22;8103;51.340;12.326;2023-07-22T09:18:09;24.20;57.80
15997;DHT22;8103;51.340;12.326;2023-07-22T09:20:36;23.80;58.10
15997;DHT22;8103;51.340;12.326;2023-07-22T09:23:02;23.90;57.80
15997;DHT22;8103;51.340;12.326;2023-07-22T09:25:40;24.10;56.00
15997;DHT22;8103;51.340;12.326;2023-07-22T09:28:06;24.20;56.00
15997;DHT22;8103;51.340;12.326;2023-07-22T09:30:35;23.90;56.80
15997;DHT22;8103;51.340;12.326;2023-07-22T09:33:03;23.90;57.00
15997;DHT22;8103;51.340;12.326;2023-07-22T09:35:43;24.20;56.30
15997;DHT22;8103;51.340;12.326;2023-07-22T09:38:10;24.70;54.80
15997;DHT22;8103;51.340;12.326;2023-07-22T09:40:40;25.30;53.80
15997;DHT22;8103;51.340;12.326;2023-07-22T09:43:10;25.90;52.80
15997;DHT22;8103;51.340;12.326;2023-07-22T09:45:38;26.10;49.90
15997;DHT22;8103;51.340;12.326;2023-07-22T09:48:05;25.80;50.10
15997;DHT22;8103;51.340;12.326;2023-07-22T09:50:32;25.70;49.90
15997;DHT22;8103;51.340;12.326;2023-07-22T09:53:00;25.70;49.70
15997;DHT22;8103;51.340;12.326;2023-07-22T09:55:30;25.90;50.00
15997;DHT22;8103;51.340;12.326;2023-07-22T09:58:01;26.40;48.90
15997;DHT22;8103;51.340;12.326;2023-07-22T10:00:30;27.10;47.90
15997;DHT22;8103;51.340;12.326;2023-07-22T10:02:58;27.70;46.30
15997;DHT22;8103;51.340;12.326;2023-07-22T10:05:26;28.40;45.00
15997;DHT22;8103;51.340;12.326;2023-07-22T10:07:55;28.90;43.70
15997;DHT22;8103;51.340;12.326;2023-07-22T10:10:33;28.70;43.00
15997;DHT22;8103;51.340;12.326;2023-07-22T10:13:00;29.50;42.30
15997;DHT22;8103;51.340;12.326;2023-07-22T10:15:30;30.00;40.70
15997;DHT22;8103;51.340;12.326;2023-07-22T10:17:57;30.20;40.40
15997;DHT22;8103;51.340;12.326;2023-07-22T10:20:24;30.40;39.70
15997;DHT22;8103;51.340;12.326;2023-07-22T10:25:19;31.40;38.10
15997;DHT22;8103;51.340;12.326;2023-07-22T10:27:48;31.90;37.20
15997;DHT22;8103;51.340;12.326;2023-07-22T10:30:16;31.90;36.60
15997;DHT22;8103;51.340;12.326;2023-07-22T10:32:46;32.20;36.50
15997;DHT22;8103;51.340;12.326;2023-07-22T10:38:16;30.60;36.80
15997;DHT22;8103;51.340;12.326;2023-07-22T10:43:16;29.80;38.40
15997;DHT22;8103;51.340;12.326;2023-07-22T10:45:50;29.80;38.40
15997;DHT22;8103;51.340;12.326;2023-07-22T10:48:19;29.30;39.10
15997;DHT22;8103;51.340;12.326;2023-07-22T10:50:54;28.70;40.00
15997;DHT22;8103;51.340;12.326;2023-07-22T11:04:25;30.40;37.60
15997;DHT22;8103;51.340;12.326;2023-07-22T11:07:05;31.60;35.90
15997;DHT22;8103;51.340;12.326;2023-07-22T11:09:37;31.70;34.40
15997;DHT22;8103;51.340;12.326;2023-07-22T11:12:14;31.30;35.80
15997;DHT22;8103;51.340;12.326;2023-07-22T11:14:49;30.90;35.80
15997;DHT22;8103;51.340;12.326;2023-07-22T11:17:17;30.60;36.10
15997;DHT22;8103;51.340;12.326;2023-07-22T11:19:45;30.30;36.70
15997;DHT22;8103;51.340;12.326;2023-07-22T11:22:12;30.40;37.10
15997;DHT22;8103;51.340;12.326;2023-07-22T11:24:41;30.50;36.90
15997;DHT22;8103;51.340;12.326;2023-07-22T11:27:08;30.40;36.80
15997;DHT22;8103;51.340;12.326;2023-07-22T11:29:35;30.10;37.30
15997;DHT22;8103;51.340;12.326;2023-07-22T11:32:03;29.60;37.40
15997;DHT22;8103;51.340;12.326;2023-07-22T11:34:32;29.40;37.70
15997;DHT22;8103;51.340;12.326;2023-07-22T11:37:00;29.60;37.40
15997;DHT22;8103;51.340;12.326;2023-07-22T11:39:27;29.30;38.40
15997;DHT22;8103;51.340;12.326;2023-07-22T11:42:00;28.40;39.00
15997;DHT22;8103;51.340;12.326;2023-07-22T11:44:28;27.70;40.70
15997;DHT22;8103;51.340;12.326;2023-07-22T11:46:57;27.50;41.30
15997;DHT22;8103;51.340;12.326;2023-07-22T11:49:32;27.40;41.40
15997;DHT22;8103;51.340;12.326;2023-07-22T11:52:04;27.40;41.70
15997;DHT22;8103;51.340;12.326;2023-07-22T11:54:32;27.40;41.80
15997;DHT22;8103;51.340;12.326;2023-07-22T11:59:40;26.90;42.60
15997;DHT22;8103;51.340;12.326;2023-07-22T12:02:13;26.50;42.90
15997;DHT22;8103;51.340;12.326;2023-07-22T12:04:40;26.10;43.50
15997;DHT22;8103;51.340;12.326;2023-07-22T12:07:24;25.80;44.60
15997;DHT22;8103;51.340;12.326;2023-07-22T12:09:54;25.40;45.60
15997;DHT22;8103;51.340;12.326;2023-07-22T12:12:38;25.50;46.00
15997;DHT22;8103;51.340;12.326;2023-07-22T12:15:19;25.70;44.50
15997;DHT22;8103;51.340;12.326;2023-07-22T12:17:55;25.90;45.00
15997;DHT22;8103;51.340;12.326;2023-07-22T12:20:26;26.00;45.60
15997;DHT22;8103;51.340;12.326;2023-07-22T12:22:54;26.10;45.10
15997;DHT22;8103;51.340;12.326;2023-07-22T12:25:22;26.40;43.70
15997;DHT22;8103;51.340;12.326;2023-07-22T12:27:51;26.40;43.30
15997;DHT22;8103;51.340;12.326;2023-07-22T12:30:18;26.50;43.60
15997;DHT22;8103;51.340;12.326;2023-07-22T12:32:46;27.10;43.40
15997;DHT22;8103;51.340;12.326;2023-07-22T12:35:13;27.80;42.00
15997;DHT22;8103;51.340;12.326;2023-07-22T12:37:41;27.90;41.60
15997;DHT22;8103;51.340;12.326;2023-07-22T12:40:08;27.80;41.20
15997;DHT22;8103;51.340;12.326;2023-07-22T12:42:36;27.50;41.40
15997;DHT22;8103;51.340;12.326;2023-07-22T12:45:04;27.30;41.80
15997;DHT22;8103;51.340;12.326;2023-07-22T12:47:31;27.10;42.00
15997;DHT22;8103;51.340;12.326;2023-07-22T12:49:58;27.00;42.40
15997;DHT22;8103;51.340;12.326;2023-07-22T12:52:25;26.80;42.80
15997;DHT22;8103;51.340;12.326;2023-07-22T12:54:52;26.80;42.80
15997;DHT22;8103;51.340;12.326;2023-07-22T12:57:19;27.00;42.60
15997;DHT22;8103;51.340;12.326;2023-07-22T12:59:45;27.60;41.40
15997;DHT22;8103;51.340;12.326;2023-07-22T13:02:14;28.50;40.60
15997;DHT22;8103;51.340;12.326;2023-07-22T13:04:41;29.80;38.80
15997;DHT22;8103;51.340;12.326;2023-07-22T13:07:07;30.10;37.20
15997;DHT22;8103;51.340;12.326;2023-07-22T13:09:34;30.10;37.20
15997;DHT22;8103;51.340;12.326;2023-07-22T13:12:01;30.00;36.70
15997;DHT22;8103;51.340;12.326;2023-07-22T13:14:29;29.80;36.70
15997;DHT22;8103;51.340;12.326;2023-07-22T13:16:55;29.60;37.50
15997;DHT22;8103;51.340;12.326;2023-07-22T13:19:22;29.80;37.30
15997;DHT22;8103;51.340;12.326;2023-07-22T13:21:49;30.00;36.60
15997;DHT22;8103;51.340;12.326;2023-07-22T13:24:15;30.40;36.30
15997;DHT22;8103;51.340;12.326;2023-07-22T13:26:42;30.50;36.30
15997;DHT22;8103;51.340;12.326;2023-07-22T13:29:09;30.90;36.00
15997;DHT22;8103;51.340;12.326;2023-07-22T13:31:36;31.60;34.60
15997;DHT22;8103;51.340;12.326;2023-07-22T13:36:30;34.20;30.70
15997;DHT22;8103;51.340;12.326;2023-07-22T13:38:57;35.40;29.90
15997;DHT22;8103;51.340;12.326;2023-07-22T13:41:23;36.50;29.20
15997;DHT22;8103;51.340;12.326;2023-07-22T13:43:50;37.30;28.00
15997;DHT22;8103;51.340;12.326;2023-07-22T13:46:17;37.10;27.30
15997;DHT22;8103;51.340;12.326;2023-07-22T13:48:44;37.10;27.10
15997;DHT22;8103;51.340;12.326;2023-07-22T13:51:11;37.20;27.00
15997;DHT22;8103;51.340;12.326;2023-07-22T13:53:38;36.80;26.90
15997;DHT22;8103;51.340;12.326;2023-07-22T13:56:04;36.30;27.60
15997;DHT22;8103;51.340;12.326;2023-07-22T13:58:31;35.90;27.70
15997;DHT22;8103;51.340;12.326;2023-07-22T14:04:45;35.70;28.10
15997;DHT22;8103;51.340;12.326;2023-07-22T14:07:12;36.70;27.00
15997;DHT22;8103;51.340;12.326;2023-07-22T14:09:39;37.50;26.80
15997;DHT22;8103;51.340;12.326;2023-07-22T14:12:06;38.10;26.10
15997;DHT22;8103;51.340;12.326;2023-07-22T14:14:33;38.20;25.90
15997;DHT22;8103;51.340;12.326;2023-07-22T14:16:59;38.30;25.90
15997;DHT22;8103;51.340;12.326;2023-07-22T14:19:26;38.00;25.70
15997;DHT22;8103;51.340;12.326;2023-07-22T14:21:54;37.80;25.60
15997;DHT22;8103;51.340;12.326;2023-07-22T14:24:21;37.20;25.60
15997;DHT22;8103;51.340;12.326;2023-07-22T14:26:48;36.00;26.30
15997;DHT22;8103;51.340;12.326;2023-07-22T14:29:14;34.70;27.50
15997;DHT22;8103;51.340;12.326;2023-07-22T14:31:42;33.10;29.00
15997;DHT22;8103;51.340;12.326;2023-07-22T14:34:10;31.90;30.20
15997;DHT22;8103;51.340;12.326;2023-07-22T14:36:37;30.80;31.70
15997;DHT22;8103;51.340;12.326;2023-07-22T14:39:04;30.90;32.40
15997;DHT22;8103;51.340;12.326;2023-07-22T14:41:30;32.20;31.00
15997;DHT22;8103;51.340;12.326;2023-07-22T14:43:57;33.90;29.80
15997;DHT22;8103;51.340;12.326;2023-07-22T14:46:24;35.70;28.10
15997;DHT22;8103;51.340;12.326;2023-07-22T14:48:51;37.10;27.00
15997;DHT22;8103;51.340;12.326;2023-07-22T14:51:18;38.10;26.00
15997;DHT22;8103;51.340;12.326;2023-07-22T14:53:45;38.30;25.00
15997;DHT22;8103;51.340;12.326;2023-07-22T14:56:13;37.50;25.40
15997;DHT22;8103;51.340;12.326;2023-07-22T14:58:41;37.10;25.50
15997;DHT22;8103;51.340;12.326;2023-07-22T15:01:08;36.90;26.00
15997;DHT22;8103;51.340;12.326;2023-07-22T15:03:37;36.90;26.00
15997;DHT22;8103;51.340;12.326;2023-07-22T15:06:05;36.20;26.30
15997;DHT22;8103;51.340;12.326;2023-07-22T15:08:32;35.60;27.00
15997;DHT22;8103;51.340;12.326;2023-07-22T15:10:59;35.60;27.00
15997;DHT22;8103;51.340;12.326;2023-07-22T15:13:26;36.10;26.90
15997;DHT22;8103;51.340;12.326;2023-07-22T15:15:53;36.60;26.00
15997;DHT22;8103;51.340;12.326;2023-07-22T15:18:22;36.70;25.90
15997;DHT22;8103;51.340;12.326;2023-07-22T15:20:51;36.60;26.00
15997;DHT22;8103;51.340;12.326;2023-07-22T15:23:19;36.60;26.40
15997;DHT22;8103;51.340;12.326;2023-07-22T15:25:49;37.10;25.80
15997;DHT22;8103;51.340;12.326;2023-07-22T15:28:17;37.00;25.80
15997;DHT22;8103;51.340;12.326;2023-07-22T15:30:44;36.50;26.30
15997;DHT22;8103;51.340;12.326;2023-07-22T15:33:11;36.10;26.30
15997;DHT22;8103;51.340;12.326;2023-07-22T15:35:37;34.90;26.70
15997;DHT22;8103;51.340;12.326;2023-07-22T15:38:04;33.80;27.80
15997;DHT22;8103;51.340;12.326;2023-07-22T15:40:34;32.90;28.60
15997;DHT22;8103;51.340;12.326;2023-07-22T15:43:03;31.80;29.80
15997;DHT22;8103;51.340;12.326;2023-07-22T15:45:30;30.80;30.80
15997;DHT22;8103;51.340;12.326;2023-07-22T15:47:57;29.90;32.50
15997;DHT22;8103;51.340;12.326;2023-07-22T15:50:24;29.30;33.70
15997;DHT22;8103;51.340;12.326;2023-07-22T15:52:51;29.00;34.50
15997;DHT22;8103;51.340;12.326;2023-07-22T15:55:18;28.90;34.50
15997;DHT22;8103;51.340;12.326;2023-07-22T15:57:48;28.80;34.80
15997;DHT22;8103;51.340;12.326;2023-07-22T16:00:14;28.50;35.00
15997;DHT22;8103;51.340;12.326;2023-07-22T16:02:41;28.10;35.60
15997;DHT22;8103;51.340;12.326;2023-07-22T16:05:08;27.70;36.30
15997;DHT22;8103;51.340;12.326;2023-07-22T16:07:46;27.40;36.40
15997;DHT22;8103;51.340;12.326;2023-07-22T16:10:13;27.30;36.60
15997;DHT22;8103;51.340;12.326;2023-07-22T16:12:40;27.40;36.70
15997;DHT22;8103;51.340;12.326;2023-07-22T16:15:07;27.30;37.10